Time;durP1;ratioP1;P1;durP2;ratioP2;P2;SDS_P1;SDS_P2;PMS_P1;PMS_P2;Temp;Humidity;BMP_temperature;BMP_pressure;BME280_temperature;BME280_humidity;BME280_pressure;Samples;Min_cycle;Max_cycle;Signal;HPM_P1;HPM_P2
2022/03/20 00:01:02;;;;;;;;;33.50;32.25;;;;;3.35;37.18;101719.91;5035987;28;8848;-71
2022/03/20 00:03:33;;;;;;;;;33.25;29.50;;;;;3.43;37.02;101718.69;5055527;28;8838;-73
2022/03/20 00:06:01;;;;;;;;;29.25;23.00;;;;;3.38;37.05;101711.47;5072280;28;9572;-73
2022/03/20 00:08:31;;;;;;;;;33.50;31.00;;;;;3.39;37.11;101716.72;5089358;28;8850;-73
2022/03/20 00:11:01;;;;;;;;;35.00;30.25;;;;;3.40;37.39;101717.59;5055721;28;8992;-72
2022/03/20 00:13:31;;;;;;;;;37.00;35.25;;;;;3.31;37.60;101720.50;5071985;28;8842;-73
2022/03/20 00:16:00;;;;;;;;;24.50;22.75;;;;;3.35;37.64;101721.59;5088967;28;8944;-73
2022/03/20 00:18:28;;;;;;;;;28.25;25.25;;;;;3.23;37.79;101722.59;5088790;28;8826;-72
2022/03/20 00:21:00;;;;;;;;;28.25;26.75;;;;;3.25;37.67;101726.16;5079818;28;8850;-71
2022/03/20 00:23:30;;;;;;;;;39.25;33.00;;;;;3.18;37.89;101731.72;5093777;28;8858;-73
2022/03/20 00:25:59;;;;;;;;;38.50;30.50;;;;;3.16;37.63;101724.66;5111805;28;8853;-72
2022/03/20 00:28:27;;;;;;;;;41.50;34.50;;;;;3.13;38.06;101733.97;5093484;28;8854;-72
2022/03/20 00:30:57;;;;;;;;;31.00;31.00;;;;;3.19;37.52;101727.44;5077073;28;8949;-72
2022/03/20 00:33:26;;;;;;;;;25.50;23.75;;;;;3.09;37.71;101726.84;5111750;28;8883;-73
2022/03/20 00:35:55;;;;;;;;;33.00;31.75;;;;;3.12;37.50;101724.47;5093388;28;8850;-72
2022/03/20 00:38:27;;;;;;;;;31.50;29.75;;;;;3.03;37.44;101726.47;5111677;28;8838;-73
2022/03/20 00:40:55;;;;;;;;;34.75;31.75;;;;;2.97;37.58;101717.41;5093250;28;8866;-73
2022/03/20 00:43:24;;;;;;;;;30.25;28.50;;;;;2.94;37.29;101723.28;5111441;28;8834;-72
2022/03/20 00:45:52;;;;;;;;;34.50;28.00;;;;;2.95;37.72;101732.81;5111510;28;8850;-73
2022/03/20 00:48:24;;;;;;;;;31.25;30.75;;;;;2.95;37.65;101732.81;5068439;28;8875;-72
2022/03/20 00:50:54;;;;;;;;;29.00;26.50;;;;;2.97;37.19;101725.16;5051723;28;8852;-72
2022/03/20 00:53:22;;;;;;;;;28.00;26.00;;;;;2.93;37.31;101726.66;5067616;28;8869;-72
2022/03/20 00:55:52;;;;;;;;;27.00;24.25;;;;;2.89;37.46;101730.72;5051729;28;9588;-73
2022/03/20 00:58:21;;;;;;;;;34.25;27.50;;;;;2.90;37.49;101732.50;5078397;28;8931;-72
2022/03/20 01:00:51;;;;;;;;;34.50;31.25;;;;;2.95;37.44;101730.22;5088407;28;8861;-73
2022/03/20 01:03:20;;;;;;;;;31.00;28.25;;;;;2.99;37.46;101732.22;5088227;28;8864;-74
2022/03/20 01:05:49;;;;;;;;;28.75;26.00;;;;;3.05;36.94;101730.03;5037736;28;8848;-72
2022/03/20 01:08:18;;;;;;;;;31.25;27.50;;;;;2.93;37.12;101740.44;5054432;28;8975;-73
2022/03/20 01:10:47;;;;;;;;;27.50;26.50;;;;;2.99;36.94;101737.38;5071162;28;8844;-74
2022/03/20 01:13:17;;;;;;;;;31.25;24.75;;;;;2.86;37.38;101743.38;5087613;28;8825;-72
2022/03/20 01:15:46;;;;;;;;;32.50;29.75;;;;;2.84;37.42;101744.09;5071148;28;8921;-73
2022/03/20 01:18:14;;;;;;;;;36.00;29.25;;;;;2.88;37.33;101738.34;5037647;28;8896;-72
2022/03/20 01:20:43;;;;;;;;;29.25;25.25;;;;;2.84;37.38;101737.25;5111180;27;8836;-73
2022/03/20 01:23:12;;;;;;;;;24.75;24.75;;;;;2.89;37.26;101740.09;5099117;28;8942;-73
2022/03/20 01:25:41;;;;;;;;;33.75;24.00;;;;;2.87;37.38;101732.31;5070967;28;8976;-73
2022/03/20 01:28:10;;;;;;;;;28.75;25.75;;;;;2.88;37.39;101730.63;5087745;28;8924;-71
2022/03/20 01:30:39;;;;;;;;;19.75;18.75;;;;;2.84;37.40;101739.81;5038305;28;8954;-72
2022/03/20 01:33:08;;;;;;;;;25.50;24.00;;;;;2.77;37.42;101736.75;5087492;28;8877;-73
2022/03/20 01:35:38;;;;;;;;;22.75;22.75;;;;;2.81;37.21;101733.56;5087753;28;8837;-74
2022/03/20 01:38:06;;;;;;;;;25.75;24.00;;;;;2.76;37.34;101740.09;5087501;28;8858;-71
2022/03/20 01:40:36;;;;;;;;;25.25;23.25;;;;;2.72;37.19;101731.25;5087432;28;8854;-73
2022/03/20 01:43:05;;;;;;;;;24.25;21.75;;;;;2.68;37.29;101739.59;5087409;28;8858;-73
2022/03/20 01:45:33;;;;;;;;;21.25;21.25;;;;;2.74;37.06;101739.97;5087107;28;8873;-73
2022/03/20 01:48:03;;;;;;;;;27.25;23.50;;;;;2.64;37.09;101735.03;5070396;28;8846;-72
2022/03/20 01:50:33;;;;;;;;;27.25;20.75;;;;;2.58;37.32;101734.63;5087263;28;8957;-72
2022/03/20 01:53:07;;;;;;;;;33.25;25.50;;;;;2.60;37.06;101733.03;5087388;28;8869;-73
2022/03/20 01:55:36;;;;;;;;;21.25;21.25;;;;;2.66;36.91;101736.00;5109866;28;8831;-75
2022/03/20 01:58:05;;;;;;;;;19.75;18.25;;;;;2.70;36.84;101727.69;5091891;28;8854;-73
2022/03/20 02:00:34;;;;;;;;;24.00;22.50;;;;;2.71;36.85;101732.06;5041213;28;8853;-72
2022/03/20 02:03:06;;;;;;;;;25.50;20.00;;;;;2.75;36.50;101731.47;5091610;28;8862;-72
2022/03/20 02:05:35;;;;;;;;;21.50;21.50;;;;;2.79;36.49;101728.31;5090781;28;8932;-72
2022/03/20 02:08:04;;;;;;;;;17.75;17.75;;;;;2.84;36.22;101729.50;5091668;28;8866;-72
2022/03/20 02:10:36;;;;;;;;;22.75;22.00;;;;;2.84;36.27;101731.22;5109470;28;8934;-73
2022/03/20 02:13:05;;;;;;;;;19.75;18.75;;;;;2.91;36.22;101730.78;5086474;28;8842;-73
2022/03/20 02:15:36;;;;;;;;;19.50;17.50;;;;;2.91;36.01;101720.47;5037285;28;8893;-73
2022/03/20 02:18:07;;;;;;;;;20.25;19.00;;;;;2.90;36.11;101732.50;5086720;28;8853;-73
2022/03/20 02:20:36;;;;;;;;;21.75;20.50;;;;;2.89;36.11;101732.38;5020397;28;8838;-72
2022/03/20 02:23:07;;;;;;;;;21.50;20.00;;;;;2.86;36.17;101729.63;5069671;28;8865;-73
2022/03/20 02:25:37;;;;;;;;;27.75;22.75;;;;;2.88;36.05;101728.91;5069777;28;8853;-71
2022/03/20 02:28:05;;;;;;;;;28.50;23.50;;;;;2.90;36.01;101731.59;5086783;28;8932;-72
2022/03/20 02:30:34;;;;;;;;;19.00;18.50;;;;;2.84;36.05;101728.63;5069721;28;9572;-74
2022/03/20 02:33:03;;;;;;;;;21.75;18.25;;;;;2.84;35.91;101726.06;5105011;28;8954;-73
2022/03/20 02:35:33;;;;;;;;;24.00;21.25;;;;;2.85;36.04;101727.81;5089842;28;8870;-72
2022/03/20 02:38:02;;;;;;;;;22.00;21.25;;;;;2.83;36.09;101724.25;5090254;28;8846;-71
2022/03/20 02:40:34;;;;;;;;;14.75;14.75;;;;;2.85;36.11;101722.66;5090528;28;8838;-70
2022/03/20 02:43:06;;;;;;;;;21.50;19.25;;;;;2.86;36.22;101716.75;5056530;28;8842;-73
2022/03/20 02:45:35;;;;;;;;;25.00;21.00;;;;;2.87;36.10;101724.56;5109393;28;8853;-73
2022/03/20 02:48:05;;;;;;;;;20.00;20.00;;;;;2.92;36.04;101722.28;5109179;28;8837;-73
2022/03/20 02:50:36;;;;;;;;;22.75;22.75;;;;;2.90;35.99;101717.03;5109023;28;8846;-73
2022/03/20 02:53:11;;;;;;;;;22.25;19.50;;;;;2.88;36.06;101728.03;5087563;28;8851;-73
2022/03/20 02:55:44;;;;;;;;;19.75;17.75;;;;;2.80;36.00;101721.47;5070724;28;8932;-73
2022/03/20 02:58:15;;;;;;;;;24.50;23.00;;;;;2.57;36.30;101728.59;5070730;28;8882;-72
2022/03/20 03:00:45;;;;;;;;;16.25;16.00;;;;;2.63;36.45;101726.41;5088508;28;8868;-73
2022/03/20 03:03:14;;;;;;;;;22.75;22.25;;;;;2.68;36.41;101731.84;5053778;28;8852;-72
2022/03/20 03:05:43;;;;;;;;;23.50;20.25;;;;;2.71;36.39;101732.94;5088571;28;8955;-73
2022/03/20 03:11:04;;;;;;;;;22.25;20.75;;;;;2.73;36.35;101726.22;5009484;28;8840;-73
2022/03/20 03:13:35;;;;;;;;;19.50;17.50;;;;;2.63;36.60;101731.56;5025770;28;9030;-71
2022/03/20 03:16:07;;;;;;;;;21.25;19.00;;;;;2.64;36.74;101724.72;5025371;28;8848;-73
2022/03/20 03:18:37;;;;;;;;;20.50;20.50;;;;;2.68;36.51;101734.44;5009812;28;8855;-72
2022/03/20 03:21:10;;;;;;;;;19.25;18.50;;;;;2.61;36.73;101727.09;5025759;28;8837;-73
2022/03/20 03:23:39;;;;;;;;;16.25;14.00;;;;;2.54;36.52;101723.22;5009332;28;8848;-72
2022/03/20 03:26:09;;;;;;;;;19.75;19.25;;;;;2.53;36.66;101724.00;5025654;28;8875;-71
2022/03/20 03:28:38;;;;;;;;;20.75;19.75;;;;;2.49;36.64;101728.03;5038616;28;8977;-73
2022/03/20 03:31:08;;;;;;;;;21.50;18.75;;;;;2.40;36.35;101737.75;5028892;28;8842;-72
2022/03/20 03:35:41;;;;;;;;;21.00;20.25;;;;;2.41;36.39;101730.91;4996397;28;8838;-72
2022/03/20 03:36:28;;;;;;;;;18.50;18.25;;;;;2.36;36.64;101728.00;5045755;28;8854;-73
2022/03/20 03:38:56;;;;;;;;;16.75;14.25;;;;;2.30;36.81;101735.31;5052057;28;8878;-72
2022/03/20 03:41:26;;;;;;;;;22.75;20.75;;;;;2.24;36.79;101725.50;5065407;28;8855;-71
2022/03/20 03:43:55;;;;;;;;;19.25;17.25;;;;;2.21;36.93;101738.19;5065376;28;8902;-71
2022/03/20 03:46:24;;;;;;;;;22.75;18.25;;;;;2.28;36.45;101742.94;5065266;28;8852;-73
2022/03/20 03:48:53;;;;;;;;;21.25;16.50;;;;;2.28;36.44;101742.06;5086878;28;8850;-73
2022/03/20 03:51:22;;;;;;;;;19.75;16.50;;;;;2.19;36.48;101741.41;5110140;27;8871;-72
2022/03/20 03:53:51;;;;;;;;;17.00;15.50;;;;;2.25;36.41;101744.41;5129132;27;8847;-73
2022/03/20 03:56:20;;;;;;;;;20.50;19.00;;;;;2.26;36.47;101739.38;5110696;27;9002;-71
2022/03/20 03:58:49;;;;;;;;;17.25;15.00;;;;;2.28;36.20;101739.47;5128905;27;8894;-72
2022/03/20 04:01:18;;;;;;;;;12.50;10.50;;;;;2.39;36.03;101732.50;5110790;27;8832;-71
2022/03/20 04:03:47;;;;;;;;;10.00;9.00;;;;;2.30;35.90;101738.78;5128746;27;8855;-72
2022/03/20 04:06:16;;;;;;;;;13.75;13.25;;;;;2.30;36.03;101741.34;5110563;27;8913;-73
2022/03/20 04:08:44;;;;;;;;;15.25;13.25;;;;;2.21;36.18;101738.19;5089492;28;9646;-72
2022/03/20 04:11:14;;;;;;;;;17.00;16.50;;;;;2.23;36.17;101730.53;5073350;28;8961;-72
2022/03/20 04:13:42;;;;;;;;;15.00;9.25;;;;;2.20;36.35;101733.81;5090280;28;8846;-72
2022/03/20 04:16:12;;;;;;;;;15.00;13.00;;;;;2.17;36.30;101733.59;5089936;28;8846;-71
2022/03/20 04:18:41;;;;;;;;;18.00;15.25;;;;;2.20;36.35;101744.09;5107951;28;8857;-71
2022/03/20 04:21:10;;;;;;;;;14.00;14.00;;;;;2.11;36.53;101734.06;5108323;28;8923;-72
2022/03/20 04:23:44;;;;;;;;;21.25;17.50;;;;;2.09;36.48;101734.75;5073461;28;8928;-72
2022/03/20 04:26:14;;;;;;;;;17.25;16.00;;;;;2.13;36.52;101735.03;5072320;28;8885;-73
2022/03/20 04:28:44;;;;;;;;;14.75;13.25;;;;;2.08;36.51;101736.44;5090862;28;8842;-71
2022/03/20 04:31:15;;;;;;;;;14.75;13.25;;;;;2.05;36.86;101745.63;5112188;28;8861;-72
2022/03/20 04:33:45;;;;;;;;;16.25;13.25;;;;;2.13;36.60;101752.19;5090249;28;8881;-72
2022/03/20 04:36:13;;;;;;;;;16.50;16.50;;;;;1.99;36.68;101747.78;5071965;28;8853;-73
2022/03/20 04:38:43;;;;;;;;;12.75;12.25;;;;;1.94;36.60;101747.44;5071785;28;8853;-74
2022/03/20 04:41:12;;;;;;;;;18.50;16.00;;;;;1.99;36.97;101747.78;5088894;28;8912;-72
2022/03/20 04:43:40;;;;;;;;;16.00;12.25;;;;;2.02;36.92;101747.97;5088838;28;8877;-74
2022/03/20 04:46:09;;;;;;;;;11.75;10.75;;;;;2.03;36.83;101753.22;5088752;28;8934;-72
2022/03/20 04:59:44;;;;;;;;;15.25;12.75;;;;;1.97;37.16;101765.69;5088444;28;8846;-72
2022/03/20 05:02:12;;;;;;;;;13.25;13.25;;;;;2.03;37.42;101766.09;5088356;28;8977;-71
2022/03/20 05:04:43;;;;;;;;;19.00;16.00;;;;;2.13;37.22;101770.19;5097981;28;8900;-72
2022/03/20 05:07:11;;;;;;;;;18.75;16.00;;;;;2.14;37.22;101775.44;5110901;28;8839;-73
2022/03/20 05:15:12;;;;;;;;;25.25;22.25;;;;;2.28;38.15;101786.69;5016466;28;8842;-72
2022/03/20 05:17:41;;;;;;;;;19.50;16.00;;;;;2.35;38.21;101785.44;5051089;28;9001;-72
2022/03/20 05:20:12;;;;;;;;;23.75;21.25;;;;;2.54;37.74;101787.59;5067830;28;8848;-72
2022/03/20 05:22:41;;;;;;;;;22.00;22.00;;;;;2.41;38.24;101793.59;5034241;28;9582;-72
2022/03/20 05:25:11;;;;;;;;;24.75;20.00;;;;;2.41;38.68;101792.72;5031228;28;8867;-74
2022/03/20 05:27:39;;;;;;;;;23.50;22.75;;;;;2.43;38.91;101792.00;5020370;28;8865;-74
2022/03/20 05:30:09;;;;;;;;;25.75;23.25;;;;;2.55;38.33;101789.38;5027262;28;8849;-72
2022/03/20 05:32:40;;;;;;;;;31.50;27.50;;;;;2.57;38.55;101795.56;5010722;28;8882;-73
2022/03/20 05:35:11;;;;;;;;;39.00;32.50;;;;;2.64;38.59;101794.25;5010751;28;8860;-72
2022/03/20 05:37:40;;;;;;;;;24.25;24.25;;;;;2.71;39.08;101801.63;5010795;28;8868;-73
2022/03/20 05:40:10;;;;;;;;;29.25;25.00;;;;;2.81;38.60;101800.56;5006684;28;8875;-73
2022/03/20 05:42:39;;;;;;;;;28.50;27.25;;;;;2.80;39.16;101799.66;5007353;28;8854;-74
2022/03/20 05:45:10;;;;;;;;;25.50;23.50;;;;;2.92;38.46;101803.06;4990963;28;8867;-73
2022/03/20 05:47:39;;;;;;;;;19.00;14.25;;;;;2.80;39.11;101799.66;5007287;28;8871;-72
2022/03/20 05:50:09;;;;;;;;;20.50;17.50;;;;;2.88;39.14;101807.91;5015913;28;8942;-74
2022/03/20 05:52:39;;;;;;;;;25.25;22.25;;;;;2.91;38.72;101797.78;5026699;28;8869;-73
2022/03/20 05:55:09;;;;;;;;;8.25;6.75;;;;;2.97;38.42;101798.22;5010732;28;8865;-71
2022/03/20 06:00:28;;;;;;;;;30.00;29.25;;;;;2.97;38.61;101815.34;5015954;28;8864;-72
2022/03/20 06:02:57;;;;;;;;;30.50;29.00;;;;;2.99;38.47;101814.69;5050023;28;8832;-72
2022/03/20 06:05:26;;;;;;;;;29.25;26.25;;;;;3.00;38.07;101800.09;5066728;28;8852;-73
2022/03/20 06:07:56;;;;;;;;;27.25;24.75;;;;;3.04;37.97;101812.41;5050112;28;8900;-72
2022/03/20 06:10:25;;;;;;;;;31.00;28.75;;;;;3.05;37.61;101812.50;5055381;28;8974;-73
2022/03/20 06:12:53;;;;;;;;;25.00;20.00;;;;;3.07;37.56;101810.91;5109534;28;8880;-73
2022/03/20 06:15:22;;;;;;;;;22.75;21.25;;;;;3.20;37.44;101825.53;5109915;28;8826;-74
2022/03/20 06:17:51;;;;;;;;;24.25;24.25;;;;;3.19;37.52;101809.94;5109614;28;8869;-74
2022/03/20 06:20:20;;;;;;;;;25.75;25.25;;;;;3.34;37.05;101813.53;5109808;28;8969;-72
2022/03/20 06:22:49;;;;;;;;;31.50;26.50;;;;;3.33;37.70;101824.66;5109781;28;9157;-71
2022/03/20 06:25:20;;;;;;;;;27.50;25.00;;;;;3.43;37.25;101832.19;5110948;28;8850;-72
2022/03/20 06:27:50;;;;;;;;;28.50;25.25;;;;;3.45;37.13;101828.00;5109628;28;8882;-70
2022/03/20 06:30:21;;;;;;;;;24.50;23.50;;;;;3.54;37.29;101827.72;5074107;28;8854;-72
2022/03/20 06:32:50;;;;;;;;;32.00;27.00;;;;;3.55;36.80;101832.06;5109677;28;8858;-73
2022/03/20 06:35:19;;;;;;;;;31.25;28.50;;;;;3.74;36.41;101830.69;5078000;28;8900;-71
2022/03/20 06:37:53;;;;;;;;;31.50;26.00;;;;;3.92;36.20;101838.72;5099694;28;8838;-71
2022/03/20 06:40:23;;;;;;;;;25.50;23.25;;;;;4.02;36.13;101841.06;5100924;28;8850;-71
2022/03/20 06:42:53;;;;;;;;;29.50;25.50;;;;;4.07;35.97;101852.59;5079434;28;8842;-72
2022/03/20 06:45:21;;;;;;;;;27.00;26.50;;;;;4.19;35.43;101853.34;5091830;28;8861;-71
2022/03/20 06:47:50;;;;;;;;;24.00;24.00;;;;;4.14;35.74;101848.69;5109410;28;8866;-71
2022/03/20 06:50:20;;;;;;;;;26.75;26.25;;;;;4.19;35.38;101850.75;5108867;28;8878;-73
2022/03/20 06:52:48;;;;;;;;;24.00;22.25;;;;;4.12;35.88;101850.28;5066792;28;8872;-73
2022/03/20 06:55:18;;;;;;;;;35.25;26.25;;;;;4.26;35.33;101852.94;5108815;28;8842;-72
2022/03/20 06:57:49;;;;;;;;;28.50;23.25;;;;;4.44;35.34;101867.78;5108842;28;8880;-73
2022/03/20 07:00:17;;;;;;;;;32.75;29.00;;;;;4.56;35.63;101865.09;5056231;28;8846;-71
2022/03/20 07:02:57;;;;;;;;;26.75;23.25;;;;;4.35;35.14;101859.44;5108876;28;8838;-72
2022/03/20 07:05:32;;;;;;;;;24.75;22.75;;;;;4.38;35.79;101877.75;5039634;28;8962;-72
2022/03/20 07:08:01;;;;;;;;;28.25;25.25;;;;;4.32;35.83;101875.66;5090569;28;8858;-72
2022/03/20 07:10:30;;;;;;;;;29.00;29.00;;;;;4.47;35.69;101883.47;5056601;28;9012;-73
2022/03/20 07:15:44;;;;;;;;;24.75;24.75;;;;;4.49;35.65;101874.13;5108181;28;8834;-73
2022/03/20 07:18:14;;;;;;;;;23.25;22.00;;;;;4.54;35.47;101874.41;5108562;28;8834;-73
2022/03/20 07:20:45;;;;;;;;;25.25;23.25;;;;;4.54;36.32;101871.81;5108563;28;8888;-72
2022/03/20 07:23:15;;;;;;;;;20.25;19.25;;;;;4.66;35.38;101872.59;5108388;28;8869;-74
2022/03/20 07:31:19;;;;;;;;;25.25;23.50;;;;;5.10;34.98;101879.53;5065224;28;8861;-73
2022/03/20 07:33:49;;;;;;;;;19.75;18.50;;;;;5.26;34.30;101879.63;5065311;28;8867;-74
2022/03/20 07:36:19;;;;;;;;;39.75;33.25;;;;;5.37;33.83;101872.50;5065464;28;8867;-72
2022/03/20 07:38:50;;;;;;;;;23.50;21.75;;;;;5.59;32.63;101866.84;5065199;28;8871;-72
2022/03/20 07:41:18;;;;;;;;;23.50;19.25;;;;;5.43;32.84;101871.97;5015329;28;8855;-72
2022/03/20 07:43:49;;;;;;;;;31.75;27.25;;;;;5.53;32.35;101863.03;5048437;28;8877;-71
2022/03/20 07:46:17;;;;;;;;;28.75;24.50;;;;;5.65;32.26;101861.13;5065362;28;8847;-73
2022/03/20 07:48:47;;;;;;;;;23.50;21.75;;;;;5.66;31.95;101852.56;5065066;28;8956;-73
2022/03/20 07:51:17;;;;;;;;;17.75;16.25;;;;;5.65;32.06;101845.59;5064958;28;8968;-72
2022/03/20 07:53:45;;;;;;;;;20.50;18.75;;;;;5.74;32.25;101863.38;5048188;28;8902;-72
2022/03/20 07:56:18;;;;;;;;;23.25;23.00;;;;;5.91;31.84;101857.44;5047947;28;8855;-72
2022/03/20 07:58:47;;;;;;;;;27.00;24.25;;;;;6.00;31.54;101852.78;5053104;28;8867;-73
2022/03/20 08:01:17;;;;;;;;;20.50;18.75;;;;;5.95;31.44;101849.06;5089952;28;8846;-73
2022/03/20 08:03:51;;;;;;;;;24.50;23.75;;;;;5.99;31.59;101858.78;5110949;28;8842;-71
2022/03/20 08:06:19;;;;;;;;;27.00;23.00;;;;;6.08;31.75;101862.69;5111759;28;8861;-72
2022/03/20 08:08:48;;;;;;;;;26.25;23.25;;;;;6.06;31.07;101852.25;5111428;28;8852;-73
2022/03/20 08:11:17;;;;;;;;;24.00;20.75;;;;;6.03;31.14;101859.81;5060098;28;8858;-71
2022/03/20 08:13:46;;;;;;;;;23.50;21.50;;;;;6.29;31.09;101858.66;5093824;28;8938;-72
2022/03/20 08:16:17;;;;;;;;;22.00;20.50;;;;;6.40;30.50;101852.38;5111968;28;8827;-73
2022/03/20 08:18:45;;;;;;;;;24.50;24.50;;;;;6.55;30.44;101851.41;5093741;28;8980;-72
2022/03/20 08:21:15;;;;;;;;;31.75;30.75;;;;;6.70;30.44;101833.19;5093309;28;8955;-71
2022/03/20 08:23:43;;;;;;;;;19.25;18.75;;;;;6.71;30.30;101828.09;5093319;28;8870;-70
2022/03/20 08:26:14;;;;;;;;;24.50;21.00;;;;;6.91;30.37;101826.50;5111986;28;8850;-73
2022/03/20 08:28:44;;;;;;;;;26.25;23.50;;;;;7.00;30.41;101824.38;5111550;28;9432;-74
2022/03/20 08:31:13;;;;;;;;;25.75;25.00;;;;;7.23;29.83;101809.97;5075646;27;8838;-71
2022/03/20 08:33:43;;;;;;;;;24.25;21.00;;;;;7.30;29.22;101808.56;5111805;28;9595;-70
2022/03/20 08:36:14;;;;;;;;;26.00;23.50;;;;;7.50;28.36;101811.25;5111437;28;8912;-72
2022/03/20 08:38:43;;;;;;;;;21.75;20.75;;;;;7.51;28.35;101819.09;5093401;28;8974;-73
2022/03/20 08:41:12;;;;;;;;;19.25;18.00;;;;;7.52;27.94;101809.59;5067583;28;8844;-72
2022/03/20 08:43:41;;;;;;;;;19.25;19.25;;;;;7.47;28.37;101801.59;5068278;28;8864;-72
2022/03/20 08:46:09;;;;;;;;;17.75;17.50;;;;;7.53;27.92;101824.38;5067894;28;9729;-74
2022/03/20 08:48:38;;;;;;;;;22.00;20.75;;;;;7.54;27.95;101806.28;5067934;28;8890;-72
2022/03/20 08:51:08;;;;;;;;;16.25;16.25;;;;;7.55;27.70;101809.75;5024452;28;8938;-75
2022/03/20 08:53:39;;;;;;;;;18.25;17.00;;;;;7.57;27.76;101805.53;5008582;28;8864;-72
2022/03/20 08:56:08;;;;;;;;;21.75;21.75;;;;;7.70;27.69;101807.03;5008296;28;8993;-73
2022/03/20 08:58:36;;;;;;;;;18.00;17.50;;;;;7.83;27.74;101803.31;5000671;28;8837;-74
2022/03/20 09:01:06;;;;;;;;;17.00;15.00;;;;;7.85;28.08;101814.66;4995770;28;8830;-75
2022/03/20 09:03:35;;;;;;;;;22.50;21.50;;;;;7.95;27.40;101804.75;5011634;28;8992;-75
2022/03/20 09:06:04;;;;;;;;;18.00;18.00;;;;;7.97;27.34;101799.63;5028000;28;8854;-72
2022/03/20 09:08:35;;;;;;;;;19.25;18.00;;;;;8.06;27.23;101799.16;5027849;28;8964;-74
2022/03/20 09:11:04;;;;;;;;;19.00;18.75;;;;;7.94;27.56;101796.88;5027628;28;8899;-73
2022/03/20 09:13:32;;;;;;;;;19.75;18.00;;;;;8.16;26.84;101801.34;5027926;28;8850;-73
2022/03/20 09:19:00;;;;;;;;;19.50;18.50;;;;;8.17;26.78;101797.94;5029806;28;8845;-72
2022/03/20 09:21:29;;;;;;;;;19.25;19.00;;;;;8.28;27.04;101794.13;5074084;28;8877;-71
2022/03/20 09:24:00;;;;;;;;;17.25;17.25;;;;;8.46;27.11;101794.09;5100993;27;8868;-71
2022/03/20 09:26:29;;;;;;;;;19.50;17.50;;;;;8.58;26.91;101791.13;5131116;27;8844;-72
2022/03/20 09:28:58;;;;;;;;;23.25;22.50;;;;;8.58;26.48;101792.03;5130809;27;8840;-74
2022/03/20 09:31:27;;;;;;;;;21.00;19.50;;;;;8.64;26.24;101788.81;5130657;27;8851;-72
2022/03/20 09:33:55;;;;;;;;;22.25;21.00;;;;;8.65;25.93;101782.78;5130714;27;8856;-72
2022/03/20 09:36:24;;;;;;;;;21.50;19.00;;;;;8.78;26.02;101779.00;5111998;27;8882;-72
2022/03/20 09:38:53;;;;;;;;;22.00;19.50;;;;;8.79;25.87;101783.41;5112391;27;8827;-71
2022/03/20 09:41:30;;;;;;;;;23.00;21.25;;;;;8.93;26.20;101774.44;5130281;27;9017;-73
2022/03/20 09:43:58;;;;;;;;;17.25;16.00;;;;;8.86;26.19;101780.19;5130895;27;9010;-73
2022/03/20 09:46:28;;;;;;;;;20.25;19.00;;;;;8.75;26.36;101779.75;5130656;27;8939;-70
2022/03/20 09:48:58;;;;;;;;;20.00;20.00;;;;;8.85;26.50;101786.25;5077337;27;8847;-74
2022/03/20 09:51:26;;;;;;;;;25.00;21.00;;;;;8.84;26.03;101786.19;5111796;27;8848;-72
2022/03/20 09:53:55;;;;;;;;;22.75;19.50;;;;;8.91;26.25;101776.09;5128995;27;8894;-71
2022/03/20 09:56:25;;;;;;;;;21.75;19.75;;;;;9.08;25.92;101774.19;5129910;27;8847;-72
2022/03/20 09:58:54;;;;;;;;;20.75;20.50;;;;;9.14;26.01;101771.84;5130276;27;10344;-72
2022/03/20 10:01:25;;;;;;;;;16.50;16.50;;;;;9.12;25.75;101775.22;5111657;27;8866;-72
2022/03/20 10:04:07;;;;;;;;;21.00;18.25;;;;;9.12;25.18;101770.88;5130230;27;8860;-71
2022/03/20 10:06:37;;;;;;;;;19.25;16.25;;;;;9.21;25.46;101766.91;5111458;27;8881;-71
2022/03/20 10:09:08;;;;;;;;;23.25;19.50;;;;;9.17;25.82;101773.69;5129934;27;9607;-70
2022/03/20 10:11:41;;;;;;;;;17.75;17.50;;;;;9.23;25.45;101773.94;5111328;27;8836;-72
2022/03/20 10:14:15;;;;;;;;;18.75;16.25;;;;;9.23;24.99;101773.94;5119283;27;8849;-72
2022/03/20 10:16:48;;;;;;;;;17.75;17.00;;;;;9.33;25.88;101765.66;5091024;28;8844;-72
2022/03/20 10:19:32;;;;;;;;;26.00;22.50;;;;;9.53;25.17;101765.59;5059069;28;8842;-72
2022/03/20 10:22:04;;;;;;;;;25.25;21.25;;;;;9.58;24.98;101761.44;5009637;28;8840;-74
2022/03/20 10:24:34;;;;;;;;;21.50;18.75;;;;;9.68;25.28;101755.78;5026022;28;8875;-71
2022/03/20 10:27:14;;;;;;;;;21.25;20.50;;;;;9.72;25.25;101759.38;5026113;28;8844;-71
2022/03/20 10:29:57;;;;;;;;;33.25;26.50;;;;;9.74;25.05;101744.69;5009543;28;8868;-72
2022/03/20 10:32:26;;;;;;;;;24.75;21.25;;;;;9.83;24.67;101745.06;5026418;28;8860;-72
2022/03/20 10:34:56;;;;;;;;;21.75;21.25;;;;;9.91;25.12;101745.34;5045003;28;9703;-73
2022/03/20 10:37:47;;;;;;;;;20.00;17.75;;;;;10.10;24.46;101739.97;5028937;28;8865;-73
2022/03/20 10:40:19;;;;;;;;;21.50;19.75;;;;;10.01;24.32;101736.13;5045636;28;8874;-72
2022/03/20 10:43:10;;;;;;;;;24.50;22.25;;;;;9.94;24.24;101745.44;5045514;28;8862;-72
2022/03/20 10:45:55;;;;;;;;;19.25;17.75;;;;;10.19;24.44;101731.59;5028729;28;8834;-72
2022/03/20 10:48:35;;;;;;;;;13.75;12.50;;;;;9.97;23.41;101722.09;5045611;28;8921;-72
2022/03/20 10:51:06;;;;;;;;;24.00;19.50;;;;;9.77;23.71;101731.75;5045315;28;8862;-72
2022/03/20 10:53:35;;;;;;;;;22.25;19.00;;;;;10.00;23.80;101729.13;5028762;28;8931;-70
2022/03/20 10:56:07;;;;;;;;;22.50;18.00;;;;;10.03;23.54;101721.44;5045459;28;8850;-72
2022/03/20 10:58:41;;;;;;;;;21.50;20.00;;;;;9.94;23.12;101721.97;5058641;27;8921;-72
2022/03/20 11:01:11;;;;;;;;;29.75;24.00;;;;;10.09;23.54;101722.56;5108078;27;9084;-72
2022/03/20 11:03:41;;;;;;;;;18.50;18.25;;;;;10.26;23.49;101722.28;5108664;28;8846;-72
2022/03/20 11:06:11;;;;;;;;;19.00;17.00;;;;;10.45;23.42;101716.94;5056144;28;8858;-73
2022/03/20 11:08:40;;;;;;;;;21.25;20.75;;;;;10.45;22.98;101714.31;5108653;28;8862;-73
2022/03/20 11:11:11;;;;;;;;;21.00;20.50;;;;;10.62;23.24;101707.03;5073790;28;8864;-74
2022/03/20 11:13:48;;;;;;;;;21.75;19.00;;;;;10.60;22.74;101698.28;5108431;28;8969;-72
2022/03/20 11:16:21;;;;;;;;;21.75;18.75;;;;;10.66;22.81;101693.28;5090280;28;8869;-71
2022/03/20 11:18:53;;;;;;;;;21.75;19.50;;;;;10.37;22.95;101681.84;5090222;28;8900;-72
2022/03/20 11:21:24;;;;;;;;;25.50;25.00;;;;;10.39;22.41;101693.22;5108432;28;8846;-73
2022/03/20 11:23:54;;;;;;;;;29.50;26.00;;;;;10.49;22.88;101678.75;5089924;28;8834;-72
2022/03/20 11:26:26;;;;;;;;;21.00;18.75;;;;;10.59;22.84;101682.59;5108247;28;8827;-71
2022/03/20 11:29:00;;;;;;;;;20.50;20.00;;;;;10.56;22.61;101690.31;5108066;28;8846;-72
2022/03/20 11:31:34;;;;;;;;;18.00;18.00;;;;;10.65;22.47;101680.19;5108107;28;8846;-71
2022/03/20 11:34:05;;;;;;;;;21.50;20.00;;;;;10.72;22.39;101676.97;5089691;28;8952;-74
2022/03/20 11:37:05;;;;;;;;;20.00;18.25;;;;;10.63;22.65;101672.31;5089963;28;8858;-73
2022/03/20 11:39:34;;;;;;;;;25.50;23.75;;;;;10.71;22.56;101675.16;5093483;28;9063;-72
2022/03/20 11:42:23;;;;;;;;;23.50;20.75;;;;;10.83;22.41;101665.16;5111760;28;8853;-73
2022/03/20 11:45:13;;;;;;;;;21.50;21.50;;;;;11.08;22.62;101655.50;5111771;28;8962;-72
2022/03/20 11:47:43;;;;;;;;;25.50;23.25;;;;;11.26;22.25;101655.16;5093381;28;8899;-71
2022/03/20 11:50:15;;;;;;;;;23.50;20.50;;;;;11.56;21.77;101651.69;5112186;28;8862;-73
2022/03/20 11:52:58;;;;;;;;;22.75;21.75;;;;;11.58;21.22;101640.44;5111596;28;8873;-71
2022/03/20 11:55:33;;;;;;;;;23.75;23.75;;;;;11.79;21.34;101647.13;5059603;28;8981;-72
2022/03/20 11:58:05;;;;;;;;;21.75;20.00;;;;;12.15;21.01;101630.72;5111580;28;9525;-72
2022/03/20 12:00:36;;;;;;;;;21.25;17.25;;;;;12.05;20.72;101638.31;5111578;28;8878;-71
2022/03/20 12:03:27;;;;;;;;;17.00;17.00;;;;;12.09;20.26;101640.16;5111875;28;8841;-72
2022/03/20 12:06:33;;;;;;;;;19.00;19.00;;;;;11.99;19.59;101639.91;5111880;28;8850;-72
2022/03/20 12:09:09;;;;;;;;;24.75;22.75;;;;;12.37;19.32;101626.94;5111949;28;8881;-72
2022/03/20 12:11:56;;;;;;;;;22.25;20.75;;;;;12.71;20.12;101615.59;5093367;28;8843;-73
2022/03/20 12:14:32;;;;;;;;;22.25;22.00;;;;;12.56;20.01;101625.69;5093410;28;8942;-70